createdAt,value
2023-02-05T00:01:24.411Z,56.86
2023-02-05T00:03:51.094Z,56.31
2023-02-05T00:06:18.101Z,58.16
2023-02-05T00:08:44.679Z,59.85
2023-02-05T00:11:11.534Z,60.88
2023-02-05T00:13:40.752Z,62.01
2023-02-05T00:16:18.348Z,63.47
2023-02-05T00:18:45.315Z,60.97
2023-02-05T00:21:13.183Z,57.29
2023-02-05T00:23:40.169Z,56.88
2023-02-05T00:26:08.143Z,58.55
2023-02-05T00:28:35.572Z,60.45
2023-02-05T00:31:19.481Z,61.85
2023-02-05T00:33:46.667Z,62.59
2023-02-05T00:36:14.334Z,59.62
2023-02-05T00:38:42.810Z,57.15
2023-02-05T00:41:11.055Z,58.34
2023-02-05T00:43:38.849Z,60.12
2023-02-05T00:46:06.299Z,61.01
2023-02-05T00:48:33.128Z,62.93
2023-02-05T00:50:59.813Z,62.32
2023-02-05T00:53:26.674Z,58.45
2023-02-05T00:55:53.301Z,55.40
2023-02-05T00:58:20.129Z,57.14
2023-02-05T01:00:47.311Z,59.25
2023-02-05T01:03:13.933Z,60.79
2023-02-05T01:05:40.644Z,61.42
2023-02-05T01:08:10.254Z,63.28
2023-02-05T01:10:37.982Z,61.74
2023-02-05T01:13:05.392Z,57.49
2023-02-05T01:15:32.475Z,56.80
2023-02-05T01:18:00.284Z,58.75
2023-02-05T01:20:27.158Z,60.42
2023-02-05T01:22:53.702Z,61.35
2023-02-05T01:25:20.327Z,63.12
2023-02-05T01:27:46.925Z,62.25
2023-02-05T01:30:14.015Z,57.80
2023-02-05T01:32:41.086Z,56.45
2023-02-05T01:35:08.514Z,58.33
2023-02-05T01:37:35.258Z,60.06
2023-02-05T01:40:02.191Z,61.75
2023-02-05T01:42:31.200Z,63.54
2023-02-05T01:45:22.440Z,62.80
2023-02-05T01:48:01.272Z,57.69
2023-02-05T01:50:28.984Z,57.50
2023-02-05T01:52:57.872Z,59.24
2023-02-05T01:55:24.617Z,60.65
2023-02-05T01:57:51.897Z,62.20
2023-02-05T02:00:19.899Z,64.30
2023-02-05T02:02:46.552Z,61.58
2023-02-05T02:05:16.636Z,56.93
2023-02-05T02:07:43.211Z,56.51
2023-02-05T02:10:12.662Z,58.47
2023-02-05T02:12:41.659Z,59.97
2023-02-05T02:15:17.443Z,61.67
2023-02-05T02:17:47.352Z,63.98
2023-02-05T02:20:28.085Z,61.52
2023-02-05T02:22:54.552Z,56.70
2023-02-05T02:25:42.530Z,56.87
2023-02-05T02:28:35.265Z,58.81
2023-02-05T02:31:21.477Z,61.09
2023-02-05T02:33:56.030Z,62.45
2023-02-05T02:37:01.845Z,64.10
2023-02-05T02:39:39.892Z,59.09
2023-02-05T02:42:22.026Z,55.49
2023-02-05T02:44:56.037Z,57.61
2023-02-05T02:47:26.429Z,59.54
2023-02-05T02:50:10.595Z,60.98
2023-02-05T02:52:40.565Z,63.45
2023-02-05T02:55:10.888Z,62.04
2023-02-05T02:57:39.914Z,57.26
2023-02-05T03:00:13.393Z,56.93
2023-02-05T03:02:40.760Z,58.78
2023-02-05T03:05:12.015Z,60.82
2023-02-05T03:07:44.095Z,62.28
2023-02-05T03:10:34.034Z,64.04
2023-02-05T03:13:00.549Z,59.83
2023-02-05T03:15:27.190Z,55.44
2023-02-05T03:17:54.347Z,56.80
2023-02-05T03:20:26.387Z,59.02
2023-02-05T03:22:53.039Z,60.66
2023-02-05T03:25:21.696Z,62.24
2023-02-05T03:27:51.345Z,63.59
2023-02-05T03:30:18.104Z,59.56
2023-02-05T03:33:02.487Z,55.25
2023-02-05T03:35:39.903Z,56.78
2023-02-05T03:38:30.772Z,59.13
2023-02-05T03:41:06.243Z,61.03
2023-02-05T03:43:55.536Z,62.58
2023-02-05T03:46:44.073Z,63.38
2023-02-05T03:49:42.459Z,57.96
2023-02-05T03:52:20.107Z,56.31
2023-02-05T03:55:09.024Z,58.70
2023-02-05T03:57:47.247Z,61.04
2023-02-05T04:00:14.780Z,62.90
2023-02-05T04:02:42.492Z,63.20
2023-02-05T04:05:09.076Z,58.19
2023-02-05T04:07:35.619Z,55.52
2023-02-05T04:10:02.463Z,57.59
2023-02-05T04:12:29.008Z,59.75
2023-02-05T04:14:55.546Z,61.41
2023-02-05T04:17:22.131Z,63.18
2023-02-05T04:19:48.677Z,61.97
2023-02-05T04:22:15.212Z,56.90
2023-02-05T04:24:41.778Z,56.60
2023-02-05T04:27:08.352Z,59.05
2023-02-05T04:29:34.932Z,61.11
2023-02-05T04:32:01.510Z,63.54
2023-02-05T04:34:28.329Z,61.50
2023-02-05T04:36:54.885Z,56.49
2023-02-05T04:39:21.440Z,56.45
2023-02-05T04:41:47.994Z,58.57
2023-02-05T04:44:14.539Z,60.32
2023-02-05T04:46:41.083Z,61.80
2023-02-05T04:49:07.684Z,63.36
2023-02-05T04:51:34.253Z,60.59
2023-02-05T04:54:00.901Z,55.69
2023-02-05T04:56:27.515Z,56.11
2023-02-05T04:58:54.102Z,57.65
2023-02-05T05:01:22.688Z,58.77
2023-02-05T05:03:50.261Z,60.40
2023-02-05T05:06:18.364Z,62.84
2023-02-05T05:08:45.217Z,62.80
2023-02-05T05:11:17.959Z,57.98
2023-02-05T05:13:44.836Z,56.00
2023-02-05T05:16:12.096Z,58.12
2023-02-05T05:18:39.635Z,60.65
2023-02-05T05:21:07.154Z,63.25
2023-02-05T05:23:34.595Z,61.53
2023-02-05T05:26:08.824Z,56.19
2023-02-05T05:28:36.140Z,56.17
2023-02-05T05:31:13.994Z,58.45
2023-02-05T05:33:40.611Z,60.60
2023-02-05T05:36:07.874Z,62.43
2023-02-05T05:38:35.074Z,63.63
2023-02-05T05:41:20.080Z,59.54
2023-02-05T05:43:47.355Z,55.33
2023-02-05T05:46:26.133Z,57.20
2023-02-05T05:48:56.029Z,59.52
2023-02-05T05:51:25.682Z,61.19
2023-02-05T05:53:52.744Z,62.97
2023-02-05T05:56:19.533Z,62.50
2023-02-05T05:58:47.323Z,57.24
2023-02-05T06:01:16.817Z,56.34
2023-02-05T06:03:43.361Z,58.60
2023-02-05T06:06:11.565Z,60.85
2023-02-05T06:08:38.511Z,63.02
2023-02-05T06:11:06.094Z,62.72
2023-02-05T06:13:34.105Z,57.68
2023-02-05T06:16:00.887Z,56.60
2023-02-05T06:18:27.812Z,58.92
2023-02-05T06:20:54.392Z,60.98
2023-02-05T06:23:20.948Z,63.36
2023-02-05T06:25:47.771Z,62.85
2023-02-05T06:28:14.363Z,58.05
2023-02-05T06:30:41.059Z,56.27
2023-02-05T06:33:07.648Z,58.46
2023-02-05T06:35:34.456Z,60.44
2023-02-05T06:38:01.359Z,62.15
2023-02-05T06:40:28.229Z,64.16
2023-02-05T06:42:55.142Z,61.12
2023-02-05T06:45:22.527Z,54.87
2023-02-05T06:47:52.133Z,55.18
2023-02-05T06:50:19.497Z,57.89
2023-02-05T06:52:46.055Z,60.18
2023-02-05T06:55:12.617Z,62.01
2023-02-05T06:57:39.303Z,63.77
2023-02-05T07:00:07.221Z,60.59
2023-02-05T07:02:33.966Z,55.34
2023-02-05T07:05:00.633Z,55.82
2023-02-05T07:07:27.677Z,58.17
2023-02-05T07:09:54.347Z,60.19
2023-02-05T07:12:21.348Z,61.79
2023-02-05T07:14:47.851Z,63.74
2023-02-05T07:17:14.378Z,61.66
2023-02-05T07:19:40.949Z,56.72
2023-02-05T07:22:07.713Z,56.56
2023-02-05T07:24:34.202Z,58.85
2023-02-05T07:27:00.845Z,60.72
2023-02-05T07:29:27.882Z,62.46
2023-02-05T07:31:54.581Z,63.70
2023-02-05T07:34:21.139Z,59.69
2023-02-05T07:36:52.174Z,55.77
2023-02-05T07:39:18.933Z,57.51
2023-02-05T07:41:45.766Z,59.91
2023-02-05T07:44:12.611Z,61.71
2023-02-05T07:46:39.572Z,63.90
2023-02-05T07:49:06.496Z,61.59
2023-02-05T07:51:33.712Z,56.76
2023-02-05T07:54:00.201Z,56.91
2023-02-05T07:56:26.716Z,59.25
2023-02-05T07:58:53.255Z,61.19
2023-02-05T08:01:19.808Z,63.11
2023-02-05T08:03:46.626Z,62.39
2023-02-05T08:06:15.603Z,57.37
2023-02-05T08:08:42.613Z,56.94
2023-02-05T08:11:17.319Z,59.27
2023-02-05T08:13:45.222Z,61.25
2023-02-05T08:16:14.891Z,63.30
2023-02-05T08:18:41.648Z,62.04
2023-02-05T08:21:08.160Z,57.00
2023-02-05T08:23:34.650Z,56.33
2023-02-05T08:26:01.244Z,58.46
2023-02-05T08:28:28.449Z,60.60
2023-02-05T08:30:55.858Z,62.44
2023-02-05T08:33:22.677Z,63.71
2023-02-05T08:35:49.293Z,59.49
2023-02-05T08:38:15.867Z,55.56
2023-02-05T08:40:42.460Z,57.16
2023-02-05T08:43:08.999Z,59.42
2023-02-05T08:45:36.326Z,61.00
2023-02-05T08:48:03.387Z,62.30
2023-02-05T08:50:29.930Z,63.78
2023-02-05T08:52:56.467Z,59.99
2023-02-05T08:55:23.031Z,55.54
2023-02-05T08:57:49.629Z,57.14
2023-02-05T09:00:16.584Z,59.35
2023-02-05T09:02:43.318Z,60.86
2023-02-05T09:05:10.452Z,62.32
2023-02-05T09:07:38.899Z,63.23
2023-02-05T09:10:08.700Z,59.11
2023-02-05T09:12:35.394Z,55.52
2023-02-05T09:15:02.159Z,57.39
2023-02-05T09:17:28.748Z,59.32
2023-02-05T09:19:55.470Z,60.69
2023-02-05T09:22:22.092Z,62.32
2023-02-05T09:24:48.953Z,63.23
2023-02-05T09:27:15.560Z,59.04
2023-02-05T09:29:42.060Z,55.22
2023-02-05T09:32:08.621Z,57.15
2023-02-05T09:34:35.443Z,58.91
2023-02-05T09:37:02.072Z,60.66
2023-02-05T09:40:17.371Z,61.92
2023-02-05T09:42:43.118Z,63.67
2023-02-05T09:45:45.991Z,59.27
2023-02-05T09:48:36.650Z,55.37
2023-02-05T09:51:04.003Z,57.45
2023-02-05T09:53:35.109Z,59.03
2023-02-05T09:56:02.569Z,60.22
2023-02-05T09:58:32.280Z,61.32
2023-02-05T10:01:41.117Z,62.23
2023-02-05T10:04:08.867Z,63.82
2023-02-05T10:06:42.607Z,59.43
2023-02-05T10:09:24.257Z,55.13
2023-02-05T10:12:23.195Z,56.38
2023-02-05T10:15:44.883Z,58.90
2023-02-05T10:19:10.303Z,60.64
2023-02-05T10:21:59.491Z,61.81
2023-02-05T10:25:02.130Z,63.84
2023-02-05T10:28:02.396Z,58.87
2023-02-05T10:31:10.038Z,54.79
2023-02-05T10:33:56.755Z,56.98
2023-02-05T10:36:26.225Z,58.61
2023-02-05T10:38:56.106Z,59.55
2023-02-05T10:41:39.037Z,60.15
2023-02-05T10:44:24.416Z,60.76
2023-02-05T10:46:54.593Z,61.25
2023-02-05T10:49:32.097Z,61.80
2023-02-05T10:51:58.619Z,63.37
2023-02-05T10:54:31.198Z,60.49
2023-02-05T10:56:58.197Z,55.40
2023-02-05T10:59:35.212Z,55.28
2023-02-05T11:02:09.102Z,56.02
2023-02-05T11:04:52.994Z,55.59
2023-02-05T11:07:38.274Z,55.22
2023-02-05T11:10:30.018Z,54.91
2023-02-05T11:13:18.948Z,55.41
2023-02-05T11:15:59.119Z,55.88
2023-02-05T11:18:40.737Z,56.32
2023-02-05T11:21:09.208Z,55.15
2023-02-05T11:23:42.382Z,54.37
2023-02-05T11:26:22.506Z,54.10
2023-02-05T11:28:49.830Z,53.84
2023-02-05T11:31:30.824Z,53.84
2023-02-05T11:34:19.313Z,53.40
2023-02-05T11:36:57.235Z,54.67
2023-02-05T11:39:35.976Z,54.60
2023-02-05T11:42:17.287Z,53.96
2023-02-05T11:44:58.791Z,53.68
2023-02-05T11:47:31.531Z,53.60
2023-02-05T11:49:58.731Z,52.88
2023-02-05T11:52:36.850Z,53.45
2023-02-05T11:55:05.551Z,53.39
2023-02-05T11:57:37.896Z,53.91
2023-02-05T12:00:15.777Z,53.71
2023-02-05T12:02:43.072Z,53.15
2023-02-05T12:05:19.287Z,53.36
2023-02-05T12:08:13.427Z,53.41
2023-02-05T12:11:56.503Z,53.50
2023-02-05T12:14:46.535Z,52.32
2023-02-05T12:17:33.283Z,52.18
2023-02-05T12:20:11.636Z,52.34
2023-02-05T12:23:01.454Z,52.52
2023-02-05T12:25:46.866Z,53.18
2023-02-05T12:28:49.387Z,53.43
2023-02-05T12:31:24.633Z,53.52
2023-02-05T12:34:17.143Z,54.34
2023-02-05T12:37:21.977Z,55.03
2023-02-05T12:40:05.489Z,55.59
2023-02-05T12:42:36.100Z,56.22
2023-02-05T12:45:30.464Z,56.42
2023-02-05T12:48:27.351Z,56.07
2023-02-05T12:51:48.071Z,56.32
2023-02-05T12:54:27.865Z,56.55
2023-02-05T12:57:26.322Z,56.73
2023-02-05T13:00:04.372Z,57.22
2023-02-05T13:02:52.081Z,57.27
2023-02-05T13:05:24.077Z,57.85
2023-02-05T13:08:34.592Z,58.07
2023-02-05T13:11:22.341Z,58.22
2023-02-05T13:14:08.609Z,58.46
2023-02-05T13:16:44.523Z,58.79
2023-02-05T13:19:33.449Z,58.84
2023-02-05T13:22:38.254Z,58.87
2023-02-05T13:25:44.247Z,58.31
2023-02-05T13:28:39.815Z,58.65
2023-02-05T13:31:50.752Z,58.62
2023-02-05T13:34:18.682Z,58.78
2023-02-05T13:37:22.317Z,58.88
2023-02-05T13:40:35.287Z,58.47
2023-02-05T13:44:04.949Z,58.56
2023-02-05T13:46:59.845Z,58.40
2023-02-05T13:49:58.534Z,58.58
2023-02-05T13:52:52.550Z,59.17
2023-02-05T13:55:36.910Z,59.59
2023-02-05T13:58:28.584Z,59.31
2023-02-05T14:01:04.711Z,59.33
2023-02-05T14:03:40.636Z,59.72
2023-02-05T14:06:28.127Z,60.07
2023-02-05T14:09:07.146Z,60.12
2023-02-05T14:11:56.779Z,60.20
2023-02-05T14:14:38.466Z,60.19
2023-02-05T14:17:30.467Z,60.17
2023-02-05T14:20:00.094Z,60.26
2023-02-05T14:22:41.672Z,59.96
2023-02-05T14:25:40.904Z,59.93
2023-02-05T14:28:16.799Z,60.16
2023-02-05T14:30:58.352Z,60.15
2023-02-05T14:33:43.352Z,59.91
2023-02-05T14:36:23.624Z,60.02
2023-02-05T14:38:56.773Z,59.95
2023-02-05T14:41:38.911Z,60.16
2023-02-05T14:44:16.080Z,60.06
2023-02-05T14:47:02.021Z,60.02
2023-02-05T14:49:37.246Z,60.01
2023-02-05T14:52:30.859Z,60.15
2023-02-05T14:55:17.008Z,60.13
2023-02-05T14:57:50.588Z,60.23
2023-02-05T15:00:36.754Z,60.37
2023-02-05T15:03:15.928Z,60.62
2023-02-05T15:05:46.013Z,60.65
2023-02-05T15:08:35.544Z,61.16
2023-02-05T15:11:33.895Z,61.56
2023-02-05T15:14:21.943Z,61.52
2023-02-05T15:17:13.318Z,62.02
2023-02-05T15:19:44.411Z,62.24
2023-02-05T15:22:34.573Z,62.32
2023-02-05T15:25:08.489Z,62.32
2023-02-05T15:27:44.265Z,63.64
2023-02-05T15:30:22.486Z,61.93
2023-02-05T15:33:00.106Z,55.88
2023-02-05T15:35:29.977Z,54.92
2023-02-05T15:38:09.564Z,56.29
2023-02-05T15:40:39.928Z,57.16
2023-02-05T15:43:20.153Z,58.03
2023-02-05T15:45:46.810Z,59.06
2023-02-05T15:48:17.298Z,59.70
2023-02-05T15:50:58.395Z,60.30
2023-02-05T15:53:33.797Z,60.97
2023-02-05T15:56:24.640Z,61.61
2023-02-05T15:58:55.972Z,63.71
2023-02-05T16:01:27.704Z,61.82
2023-02-05T16:03:54.402Z,56.26
2023-02-05T16:06:23.729Z,55.38
2023-02-05T16:08:51.988Z,56.95
2023-02-05T16:11:33.900Z,58.41
2023-02-05T16:14:20.356Z,59.70
2023-02-05T16:17:08.537Z,61.12
2023-02-05T16:19:53.441Z,62.40
2023-02-05T16:22:37.094Z,64.63
2023-02-05T16:25:30.474Z,60.94
2023-02-05T16:28:00.176Z,55.61
2023-02-05T16:31:04.544Z,56.51
2023-02-05T16:33:53.679Z,58.98
2023-02-05T16:36:39.266Z,60.77
2023-02-05T16:39:24.969Z,62.29
2023-02-05T16:42:16.770Z,63.98
2023-02-05T16:44:46.892Z,59.65
2023-02-05T16:47:15.885Z,55.61
2023-02-05T16:49:45.426Z,56.50
2023-02-05T16:52:35.925Z,58.28
2023-02-05T16:55:42.773Z,60.05
2023-02-05T16:58:22.628Z,61.56
2023-02-05T17:01:01.254Z,63.55
2023-02-05T17:03:39.076Z,60.78
2023-02-05T17:06:13.614Z,55.79
2023-02-05T17:08:41.084Z,56.31
2023-02-05T17:11:39.543Z,58.47
2023-02-05T17:14:27.093Z,60.67
2023-02-05T17:17:01.538Z,62.34
2023-02-05T17:19:31.404Z,63.93
2023-02-05T17:22:13.319Z,60.63
2023-02-05T17:24:48.674Z,55.57
2023-02-05T17:27:16.648Z,56.28
2023-02-05T17:29:43.694Z,58.24
2023-02-05T17:32:16.470Z,59.86
2023-02-05T17:34:44.043Z,61.14
2023-02-05T17:37:13.790Z,61.97
2023-02-05T17:39:43.727Z,64.27
2023-02-05T17:42:20.653Z,61.25
2023-02-05T17:44:47.642Z,56.03
2023-02-05T17:47:14.690Z,56.21
2023-02-05T17:49:41.948Z,58.14
2023-02-05T17:52:12.012Z,59.54
2023-02-05T17:54:38.718Z,60.74
2023-02-05T17:57:21.617Z,61.97
2023-02-05T17:59:48.926Z,64.04
2023-02-05T18:02:16.260Z,61.04
2023-02-05T18:04:44.238Z,55.96
2023-02-05T18:07:44.120Z,56.27
2023-02-05T18:10:17.827Z,58.63
2023-02-05T18:12:44.770Z,60.44
2023-02-05T18:15:11.713Z,61.93
2023-02-05T18:17:38.506Z,63.75
2023-02-05T18:20:05.521Z,61.15
2023-02-05T18:22:32.790Z,56.05
2023-02-05T18:24:59.720Z,56.29
2023-02-05T18:27:26.938Z,58.47
2023-02-05T18:29:53.884Z,60.33
2023-02-05T18:32:21.374Z,61.78
2023-02-05T18:34:48.005Z,63.60
2023-02-05T18:37:17.305Z,61.36
2023-02-05T18:39:45.169Z,56.08
2023-02-05T18:42:14.961Z,56.19
2023-02-05T18:44:41.657Z,58.40
2023-02-05T18:47:09.474Z,60.21
2023-02-05T18:49:36.308Z,61.60
2023-02-05T18:52:04.904Z,63.41
2023-02-05T18:54:31.500Z,61.41
2023-02-05T18:57:00.191Z,56.32
2023-02-05T18:59:26.859Z,56.35
2023-02-05T19:01:53.638Z,58.36
2023-02-05T19:04:23.733Z,60.23
2023-02-05T19:06:54.496Z,61.60
2023-02-05T19:09:23.506Z,63.41
2023-02-05T19:11:52.247Z,61.39
2023-02-05T19:14:21.452Z,56.21
2023-02-05T19:16:49.371Z,56.31
2023-02-05T19:19:22.578Z,58.47
2023-02-05T19:21:55.094Z,60.19
2023-02-05T19:24:21.867Z,61.60
2023-02-05T19:26:53.670Z,63.36
2023-02-05T19:29:20.399Z,61.24
2023-02-05T19:31:52.703Z,56.03
2023-02-05T19:34:21.486Z,56.16
2023-02-05T19:36:48.204Z,58.31
2023-02-05T19:39:14.961Z,59.96
2023-02-05T19:41:44.801Z,61.51
2023-02-05T19:44:18.081Z,63.43
2023-02-05T19:46:46.062Z,61.10
2023-02-05T19:49:16.814Z,55.92
2023-02-05T19:51:45.422Z,56.00
2023-02-05T19:54:14.256Z,58.26
2023-02-05T19:56:42.474Z,60.26
2023-02-05T19:59:09.922Z,61.80
2023-02-05T20:01:38.667Z,63.74
2023-02-05T20:04:14.560Z,61.27
2023-02-05T20:06:45.194Z,56.01
2023-02-05T20:09:12.870Z,56.54
2023-02-05T20:11:42.457Z,58.79
2023-02-05T20:14:10.004Z,60.72
2023-02-05T20:16:39.378Z,62.33
2023-02-05T20:19:08.975Z,63.90
2023-02-05T20:21:35.719Z,60.22
2023-02-05T20:24:03.913Z,55.66
2023-02-05T20:26:31.341Z,56.84
2023-02-05T20:29:16.220Z,59.08
2023-02-05T20:31:49.292Z,61.07
2023-02-05T20:34:22.704Z,62.89
2023-02-05T20:36:53.359Z,62.54
2023-02-05T20:39:21.873Z,57.52
2023-02-05T20:41:50.874Z,56.51
2023-02-05T20:44:18.212Z,58.36
2023-02-05T20:46:44.888Z,60.37
2023-02-05T20:49:11.645Z,62.19
2023-02-05T20:51:38.614Z,64.02
2023-02-05T20:54:06.065Z,60.85
2023-02-05T20:56:35.864Z,55.75
2023-02-05T20:59:05.674Z,56.26
2023-02-05T21:01:38.096Z,58.54
2023-02-05T21:04:07.050Z,60.46
2023-02-05T21:06:37.845Z,61.98
2023-02-05T21:09:06.665Z,63.66
2023-02-05T21:11:33.536Z,60.89
2023-02-05T21:14:00.442Z,55.77
2023-02-05T21:16:27.416Z,56.28
2023-02-05T21:18:54.978Z,58.52
2023-02-05T21:21:24.928Z,60.45
2023-02-05T21:24:00.339Z,61.95
2023-02-05T21:26:31.510Z,63.92
2023-02-05T21:29:01.203Z,61.16
2023-02-05T21:31:33.337Z,55.93
2023-02-05T21:34:05.557Z,56.29
2023-02-05T21:36:32.354Z,58.61
2023-02-05T21:38:59.039Z,60.42
2023-02-05T21:41:26.289Z,61.86
2023-02-05T21:43:56.648Z,63.80
2023-02-05T21:46:24.511Z,61.34
2023-02-05T21:48:53.970Z,55.88
2023-02-05T21:51:23.628Z,56.08
2023-02-05T21:53:59.161Z,58.30
2023-02-05T21:56:35.506Z,60.47
2023-02-05T21:59:02.258Z,62.31
2023-02-05T22:01:31.752Z,63.61
2023-02-05T22:04:01.650Z,59.15
2023-02-05T22:06:31.409Z,55.78
2023-02-05T22:09:00.165Z,57.57
2023-02-05T22:11:27.507Z,59.71
2023-02-05T22:13:55.697Z,61.41
2023-02-05T22:16:25.542Z,63.34
2023-02-05T22:18:53.360Z,61.74
2023-02-05T22:21:23.659Z,56.60
2023-02-05T22:23:53.021Z,56.41
2023-02-05T22:26:23.788Z,58.70
2023-02-05T22:28:50.480Z,60.53
2023-02-05T22:31:20.055Z,62.17
2023-02-05T22:33:48.971Z,64.07
2023-02-05T22:36:19.498Z,61.20
2023-02-05T22:38:47.607Z,56.20
2023-02-05T22:41:24.352Z,56.65
2023-02-05T22:43:53.627Z,59.08
2023-02-05T22:46:24.168Z,61.07
2023-02-05T22:48:51.834Z,62.73
2023-02-05T22:51:22.473Z,63.52
2023-02-05T22:53:49.835Z,59.12
2023-02-05T22:56:16.763Z,55.47
2023-02-05T22:58:45.934Z,57.32
2023-02-05T23:01:16.956Z,59.60
2023-02-05T23:03:45.037Z,61.44
2023-02-05T23:06:16.813Z,63.50
2023-02-05T23:08:49.451Z,61.49
2023-02-05T23:11:16.127Z,56.43
2023-02-05T23:13:43.004Z,56.60
2023-02-05T23:16:14.520Z,58.75
2023-02-05T23:18:42.148Z,60.52
2023-02-05T23:21:12.787Z,61.94
2023-02-05T23:23:40.286Z,63.93
2023-02-05T23:26:19.553Z,61.22
2023-02-05T23:28:47.317Z,56.05
2023-02-05T23:31:14.496Z,56.66
2023-02-05T23:33:41.378Z,58.97
2023-02-05T23:36:09.141Z,60.85
2023-02-05T23:38:36.086Z,62.52
2023-02-05T23:41:03.346Z,63.23
2023-02-05T23:43:35.064Z,59.11
2023-02-05T23:46:02.384Z,55.46
2023-02-05T23:48:29.305Z,57.19
2023-02-05T23:50:58.528Z,59.30
2023-02-05T23:53:25.758Z,61.10
2023-02-05T23:55:53.142Z,62.63
2023-02-05T23:58:23.240Z,63.17
